sensor_id;sensor_type;location;lat;lon;timestamp;P1;durP1;ratioP1;P2;durP2;ratioP2
9892;SDS011;4985;49.092;8.542;2024-01-15T00:02:17;22.20;;;11.63;;
9892;SDS011;4985;49.092;8.542;2024-01-15T00:04:42;24.17;;;13.53;;
9892;SDS011;4985;49.092;8.542;2024-01-15T00:07:08;20.10;;;11.83;;
9892;SDS011;4985;49.092;8.542;2024-01-15T00:09:34;25.50;;;12.10;;
9892;SDS011;4985;49.092;8.542;2024-01-15T00:12:00;26.47;;;12.63;;
9892;SDS011;4985;49.092;8.542;2024-01-15T00:14:26;26.27;;;11.70;;
9892;SDS011;4985;49.092;8.542;2024-01-15T00:16:52;26.90;;;10.93;;
9892;SDS011;4985;49.092;8.542;2024-01-15T00:19:20;26.40;;;11.87;;
9892;SDS011;4985;49.092;8.542;2024-01-15T00:21:46;19.07;;;9.67;;
9892;SDS011;4985;49.092;8.542;2024-01-15T00:24:11;19.30;;;9.33;;
9892;SDS011;4985;49.092;8.542;2024-01-15T00:26:37;22.63;;;10.67;;
9892;SDS011;4985;49.092;8.542;2024-01-15T00:29:02;26.00;;;13.37;;
9892;SDS011;4985;49.092;8.542;2024-01-15T00:31:28;20.30;;;9.27;;
9892;SDS011;4985;49.092;8.542;2024-01-15T00:33:55;27.23;;;14.60;;
9892;SDS011;4985;49.092;8.542;2024-01-15T00:36:20;15.80;;;8.23;;
9892;SDS011;4985;49.092;8.542;2024-01-15T00:38:46;19.80;;;11.07;;
9892;SDS011;4985;49.092;8.542;2024-01-15T00:41:12;20.90;;;10.03;;
9892;SDS011;4985;49.092;8.542;2024-01-15T00:43:38;25.00;;;12.70;;
9892;SDS011;4985;49.092;8.542;2024-01-15T00:46:03;25.17;;;13.53;;
9892;SDS011;4985;49.092;8.542;2024-01-15T00:48:29;28.13;;;12.90;;
9892;SDS011;4985;49.092;8.542;2024-01-15T00:50:54;26.10;;;14.70;;
9892;SDS011;4985;49.092;8.542;2024-01-15T00:53:20;29.20;;;17.80;;
9892;SDS011;4985;49.092;8.542;2024-01-15T00:55:47;22.73;;;10.97;;
9892;SDS011;4985;49.092;8.542;2024-01-15T00:58:13;23.03;;;11.47;;
9892;SDS011;4985;49.092;8.542;2024-01-15T01:00:38;24.10;;;11.73;;
9892;SDS011;4985;49.092;8.542;2024-01-15T01:03:03;25.87;;;17.17;;
9892;SDS011;4985;49.092;8.542;2024-01-15T01:05:29;32.30;;;17.20;;
9892;SDS011;4985;49.092;8.542;2024-01-15T01:07:54;27.97;;;17.80;;
9892;SDS011;4985;49.092;8.542;2024-01-15T01:10:19;29.10;;;16.57;;
9892;SDS011;4985;49.092;8.542;2024-01-15T01:12:45;27.40;;;13.17;;
9892;SDS011;4985;49.092;8.542;2024-01-15T01:15:10;26.53;;;12.77;;
9892;SDS011;4985;49.092;8.542;2024-01-15T01:17:35;27.90;;;14.47;;
9892;SDS011;4985;49.092;8.542;2024-01-15T01:20:01;20.17;;;10.53;;
9892;SDS011;4985;49.092;8.542;2024-01-15T01:22:29;30.03;;;17.17;;
9892;SDS011;4985;49.092;8.542;2024-01-15T01:24:54;21.40;;;12.57;;
9892;SDS011;4985;49.092;8.542;2024-01-15T01:27:20;18.47;;;10.47;;
9892;SDS011;4985;49.092;8.542;2024-01-15T01:29:45;10.57;;;4.97;;
9892;SDS011;4985;49.092;8.542;2024-01-15T01:32:10;19.53;;;11.30;;
9892;SDS011;4985;49.092;8.542;2024-01-15T01:34:39;18.73;;;8.63;;
9892;SDS011;4985;49.092;8.542;2024-01-15T01:37:09;26.33;;;12.87;;
9892;SDS011;4985;49.092;8.542;2024-01-15T01:39:38;14.73;;;7.10;;
9892;SDS011;4985;49.092;8.542;2024-01-15T01:42:04;17.57;;;8.77;;
9892;SDS011;4985;49.092;8.542;2024-01-15T01:44:29;26.03;;;11.20;;
9892;SDS011;4985;49.092;8.542;2024-01-15T01:46:55;24.03;;;13.27;;
9892;SDS011;4985;49.092;8.542;2024-01-15T01:49:22;27.03;;;14.53;;
9892;SDS011;4985;49.092;8.542;2024-01-15T01:51:48;22.43;;;13.57;;
9892;SDS011;4985;49.092;8.542;2024-01-15T01:54:14;24.63;;;14.87;;
9892;SDS011;4985;49.092;8.542;2024-01-15T01:56:40;21.37;;;8.73;;
9892;SDS011;4985;49.092;8.542;2024-01-15T01:59:07;15.87;;;7.60;;
9892;SDS011;4985;49.092;8.542;2024-01-15T02:01:36;17.27;;;10.60;;
9892;SDS011;4985;49.092;8.542;2024-01-15T02:04:01;19.73;;;10.57;;
9892;SDS011;4985;49.092;8.542;2024-01-15T02:06:27;17.00;;;8.60;;
9892;SDS011;4985;49.092;8.542;2024-01-15T02:08:52;15.53;;;8.97;;
9892;SDS011;4985;49.092;8.542;2024-01-15T02:11:18;21.77;;;11.73;;
9892;SDS011;4985;49.092;8.542;2024-01-15T02:13:43;21.53;;;10.27;;
9892;SDS011;4985;49.092;8.542;2024-01-15T02:16:09;21.00;;;9.90;;
9892;SDS011;4985;49.092;8.542;2024-01-15T02:18:41;11.23;;;5.57;;
9892;SDS011;4985;49.092;8.542;2024-01-15T02:21:10;17.03;;;8.27;;
9892;SDS011;4985;49.092;8.542;2024-01-15T02:23:36;16.37;;;7.60;;
9892;SDS011;4985;49.092;8.542;2024-01-15T02:26:01;19.30;;;9.30;;
9892;SDS011;4985;49.092;8.542;2024-01-15T02:28:27;16.70;;;9.90;;
9892;SDS011;4985;49.092;8.542;2024-01-15T02:30:53;18.70;;;10.90;;
9892;SDS011;4985;49.092;8.542;2024-01-15T02:33:18;16.27;;;9.13;;
9892;SDS011;4985;49.092;8.542;2024-01-15T02:35:43;21.03;;;13.33;;
9892;SDS011;4985;49.092;8.542;2024-01-15T02:38:11;11.53;;;6.30;;
9892;SDS011;4985;49.092;8.542;2024-01-15T02:40:38;18.33;;;10.23;;
9892;SDS011;4985;49.092;8.542;2024-01-15T02:43:04;19.27;;;10.87;;
9892;SDS011;4985;49.092;8.542;2024-01-15T02:45:29;16.43;;;9.10;;
9892;SDS011;4985;49.092;8.542;2024-01-15T02:47:55;17.63;;;8.87;;
9892;SDS011;4985;49.092;8.542;2024-01-15T02:50:20;22.73;;;12.10;;
9892;SDS011;4985;49.092;8.542;2024-01-15T02:52:46;13.20;;;9.00;;
9892;SDS011;4985;49.092;8.542;2024-01-15T02:55:12;13.93;;;7.03;;
9892;SDS011;4985;49.092;8.542;2024-01-15T02:57:37;13.47;;;8.47;;
9892;SDS011;4985;49.092;8.542;2024-01-15T03:00:02;16.50;;;10.93;;
9892;SDS011;4985;49.092;8.542;2024-01-15T03:02:29;16.17;;;9.03;;
9892;SDS011;4985;49.092;8.542;2024-01-15T03:04:56;20.93;;;10.23;;
9892;SDS011;4985;49.092;8.542;2024-01-15T03:07:22;16.37;;;10.20;;
9892;SDS011;4985;49.092;8.542;2024-01-15T03:09:47;20.73;;;11.70;;
9892;SDS011;4985;49.092;8.542;2024-01-15T03:12:12;16.87;;;10.43;;
9892;SDS011;4985;49.092;8.542;2024-01-15T03:14:38;21.60;;;12.10;;
9892;SDS011;4985;49.092;8.542;2024-01-15T03:17:03;18.30;;;11.63;;
9892;SDS011;4985;49.092;8.542;2024-01-15T03:19:29;21.87;;;12.37;;
9892;SDS011;4985;49.092;8.542;2024-01-15T03:21:55;21.73;;;10.33;;
9892;SDS011;4985;49.092;8.542;2024-01-15T03:24:21;21.07;;;13.37;;
9892;SDS011;4985;49.092;8.542;2024-01-15T03:26:46;24.47;;;12.50;;
9892;SDS011;4985;49.092;8.542;2024-01-15T03:29:11;19.87;;;12.90;;
9892;SDS011;4985;49.092;8.542;2024-01-15T03:31:37;18.63;;;10.60;;
9892;SDS011;4985;49.092;8.542;2024-01-15T03:34:02;22.30;;;12.17;;
9892;SDS011;4985;49.092;8.542;2024-01-15T03:36:28;22.27;;;11.77;;
9892;SDS011;4985;49.092;8.542;2024-01-15T03:38:53;18.43;;;9.90;;
9892;SDS011;4985;49.092;8.542;2024-01-15T03:41:19;19.30;;;10.83;;
9892;SDS011;4985;49.092;8.542;2024-01-15T03:43:44;18.50;;;9.13;;
9892;SDS011;4985;49.092;8.542;2024-01-15T03:46:09;18.90;;;10.57;;
9892;SDS011;4985;49.092;8.542;2024-01-15T03:48:35;17.70;;;11.57;;
9892;SDS011;4985;49.092;8.542;2024-01-15T03:51:00;22.20;;;12.20;;
9892;SDS011;4985;49.092;8.542;2024-01-15T03:53:25;20.07;;;11.47;;
9892;SDS011;4985;49.092;8.542;2024-01-15T03:55:51;19.10;;;11.43;;
9892;SDS011;4985;49.092;8.542;2024-01-15T03:58:17;20.67;;;13.60;;
9892;SDS011;4985;49.092;8.542;2024-01-15T04:00:42;23.90;;;12.23;;
9892;SDS011;4985;49.092;8.542;2024-01-15T04:03:08;20.60;;;11.13;;
9892;SDS011;4985;49.092;8.542;2024-01-15T04:05:33;22.17;;;12.20;;
9892;SDS011;4985;49.092;8.542;2024-01-15T04:07:59;18.60;;;10.07;;
9892;SDS011;4985;49.092;8.542;2024-01-15T04:10:24;21.60;;;12.67;;
9892;SDS011;4985;49.092;8.542;2024-01-15T04:12:50;21.07;;;11.03;;
9892;SDS011;4985;49.092;8.542;2024-01-15T04:15:15;19.50;;;10.47;;
9892;SDS011;4985;49.092;8.542;2024-01-15T04:17:40;20.53;;;11.97;;
9892;SDS011;4985;49.092;8.542;2024-01-15T04:20:06;17.10;;;10.50;;
9892;SDS011;4985;49.092;8.542;2024-01-15T04:22:32;12.20;;;8.80;;
9892;SDS011;4985;49.092;8.542;2024-01-15T04:24:59;16.90;;;9.77;;
9892;SDS011;4985;49.092;8.542;2024-01-15T04:27:24;19.97;;;10.83;;
9892;SDS011;4985;49.092;8.542;2024-01-15T04:29:49;15.80;;;10.83;;
9892;SDS011;4985;49.092;8.542;2024-01-15T04:32:15;21.33;;;13.60;;
9892;SDS011;4985;49.092;8.542;2024-01-15T04:34:40;19.30;;;11.33;;
9892;SDS011;4985;49.092;8.542;2024-01-15T04:37:05;14.67;;;8.13;;
9892;SDS011;4985;49.092;8.542;2024-01-15T04:39:31;17.83;;;9.67;;
9892;SDS011;4985;49.092;8.542;2024-01-15T04:41:56;20.07;;;10.37;;
9892;SDS011;4985;49.092;8.542;2024-01-15T04:44:22;16.27;;;9.73;;
9892;SDS011;4985;49.092;8.542;2024-01-15T04:46:47;19.03;;;9.97;;
9892;SDS011;4985;49.092;8.542;2024-01-15T04:49:12;14.47;;;9.10;;
9892;SDS011;4985;49.092;8.542;2024-01-15T04:51:38;25.37;;;13.70;;
9892;SDS011;4985;49.092;8.542;2024-01-15T04:54:03;23.60;;;12.90;;
9892;SDS011;4985;49.092;8.542;2024-01-15T04:56:29;22.97;;;11.63;;
9892;SDS011;4985;49.092;8.542;2024-01-15T04:58:54;16.87;;;9.57;;
9892;SDS011;4985;49.092;8.542;2024-01-15T05:01:19;21.93;;;10.57;;
9892;SDS011;4985;49.092;8.542;2024-01-15T05:03:45;21.20;;;11.40;;
9892;SDS011;4985;49.092;8.542;2024-01-15T05:06:10;25.53;;;10.70;;
9892;SDS011;4985;49.092;8.542;2024-01-15T05:08:35;23.53;;;11.13;;
9892;SDS011;4985;49.092;8.542;2024-01-15T05:11:01;21.60;;;12.73;;
9892;SDS011;4985;49.092;8.542;2024-01-15T05:13:27;16.63;;;8.50;;
9892;SDS011;4985;49.092;8.542;2024-01-15T05:15:53;17.40;;;9.67;;
9892;SDS011;4985;49.092;8.542;2024-01-15T05:18:18;17.17;;;8.40;;
9892;SDS011;4985;49.092;8.542;2024-01-15T05:20:43;17.50;;;9.70;;
9892;SDS011;4985;49.092;8.542;2024-01-15T05:23:09;13.57;;;8.37;;
9892;SDS011;4985;49.092;8.542;2024-01-15T05:25:34;18.97;;;11.33;;
9892;SDS011;4985;49.092;8.542;2024-01-15T05:27:59;15.33;;;9.13;;
9892;SDS011;4985;49.092;8.542;2024-01-15T05:30:25;12.50;;;7.23;;
9892;SDS011;4985;49.092;8.542;2024-01-15T05:32:50;13.17;;;6.23;;
9892;SDS011;4985;49.092;8.542;2024-01-15T05:35:15;11.87;;;6.27;;
9892;SDS011;4985;49.092;8.542;2024-01-15T05:37:43;16.17;;;8.13;;
9892;SDS011;4985;49.092;8.542;2024-01-15T05:40:13;17.23;;;9.37;;
9892;SDS011;4985;49.092;8.542;2024-01-15T05:42:39;15.93;;;8.27;;
9892;SDS011;4985;49.092;8.542;2024-01-15T05:45:05;17.50;;;8.47;;
9892;SDS011;4985;49.092;8.542;2024-01-15T05:47:31;14.60;;;8.23;;
9892;SDS011;4985;49.092;8.542;2024-01-15T05:49:56;17.70;;;8.77;;
9892;SDS011;4985;49.092;8.542;2024-01-15T05:52:22;8.47;;;5.13;;
9892;SDS011;4985;49.092;8.542;2024-01-15T05:54:48;18.53;;;9.47;;
9892;SDS011;4985;49.092;8.542;2024-01-15T05:57:14;15.90;;;8.37;;
9892;SDS011;4985;49.092;8.542;2024-01-15T05:59:39;19.20;;;9.77;;
9892;SDS011;4985;49.092;8.542;2024-01-15T06:02:04;17.37;;;8.43;;
9892;SDS011;4985;49.092;8.542;2024-01-15T06:04:30;10.80;;;5.73;;
9892;SDS011;4985;49.092;8.542;2024-01-15T06:06:55;12.20;;;5.47;;
9892;SDS011;4985;49.092;8.542;2024-01-15T06:09:20;12.63;;;6.00;;
9892;SDS011;4985;49.092;8.542;2024-01-15T06:11:46;18.13;;;9.77;;
9892;SDS011;4985;49.092;8.542;2024-01-15T06:14:11;14.80;;;7.07;;
9892;SDS011;4985;49.092;8.542;2024-01-15T06:16:36;19.40;;;10.27;;
9892;SDS011;4985;49.092;8.542;2024-01-15T06:19:02;15.40;;;8.73;;
9892;SDS011;4985;49.092;8.542;2024-01-15T06:21:28;13.33;;;7.10;;
9892;SDS011;4985;49.092;8.542;2024-01-15T06:23:53;16.40;;;8.93;;
9892;SDS011;4985;49.092;8.542;2024-01-15T06:26:18;12.43;;;6.90;;
9892;SDS011;4985;49.092;8.542;2024-01-15T06:28:44;12.57;;;6.13;;
9892;SDS011;4985;49.092;8.542;2024-01-15T06:31:09;16.73;;;8.37;;
9892;SDS011;4985;49.092;8.542;2024-01-15T06:33:35;16.10;;;7.00;;
9892;SDS011;4985;49.092;8.542;2024-01-15T06:36:00;20.97;;;10.23;;
9892;SDS011;4985;49.092;8.542;2024-01-15T06:38:25;15.33;;;8.17;;
9892;SDS011;4985;49.092;8.542;2024-01-15T06:40:51;12.47;;;6.13;;
9892;SDS011;4985;49.092;8.542;2024-01-15T06:43:17;12.47;;;7.37;;
9892;SDS011;4985;49.092;8.542;2024-01-15T06:45:42;16.77;;;9.90;;
9892;SDS011;4985;49.092;8.542;2024-01-15T06:48:10;17.70;;;9.50;;
9892;SDS011;4985;49.092;8.542;2024-01-15T06:50:39;14.43;;;9.27;;
9892;SDS011;4985;49.092;8.542;2024-01-15T06:53:05;15.43;;;7.53;;
9892;SDS011;4985;49.092;8.542;2024-01-15T06:55:30;13.13;;;7.13;;
9892;SDS011;4985;49.092;8.542;2024-01-15T06:57:55;11.40;;;6.20;;
9892;SDS011;4985;49.092;8.542;2024-01-15T07:00:21;7.90;;;4.63;;
9892;SDS011;4985;49.092;8.542;2024-01-15T07:02:46;19.30;;;10.47;;
9892;SDS011;4985;49.092;8.542;2024-01-15T07:05:11;15.10;;;9.30;;
9892;SDS011;4985;49.092;8.542;2024-01-15T07:07:37;16.40;;;9.57;;
9892;SDS011;4985;49.092;8.542;2024-01-15T07:10:02;17.30;;;11.17;;
9892;SDS011;4985;49.092;8.542;2024-01-15T07:12:29;17.10;;;11.30;;
9892;SDS011;4985;49.092;8.542;2024-01-15T07:14:55;17.93;;;10.93;;
9892;SDS011;4985;49.092;8.542;2024-01-15T07:17:21;19.50;;;11.33;;
9892;SDS011;4985;49.092;8.542;2024-01-15T07:19:46;20.93;;;12.57;;
9892;SDS011;4985;49.092;8.542;2024-01-15T07:22:12;17.03;;;9.77;;
9892;SDS011;4985;49.092;8.542;2024-01-15T07:24:37;18.93;;;9.97;;
9892;SDS011;4985;49.092;8.542;2024-01-15T07:27:03;17.40;;;9.97;;
9892;SDS011;4985;49.092;8.542;2024-01-15T07:29:29;21.20;;;13.03;;
9892;SDS011;4985;49.092;8.542;2024-01-15T07:31:55;16.50;;;8.67;;
9892;SDS011;4985;49.092;8.542;2024-01-15T07:34:21;17.10;;;10.70;;
9892;SDS011;4985;49.092;8.542;2024-01-15T07:36:47;16.30;;;9.77;;
9892;SDS011;4985;49.092;8.542;2024-01-15T07:39:12;18.77;;;11.00;;
9892;SDS011;4985;49.092;8.542;2024-01-15T07:41:38;21.30;;;12.50;;
9892;SDS011;4985;49.092;8.542;2024-01-15T07:44:04;18.17;;;8.93;;
9892;SDS011;4985;49.092;8.542;2024-01-15T07:46:30;18.50;;;10.57;;
9892;SDS011;4985;49.092;8.542;2024-01-15T07:48:55;20.03;;;10.30;;
9892;SDS011;4985;49.092;8.542;2024-01-15T07:51:23;16.37;;;9.40;;
9892;SDS011;4985;49.092;8.542;2024-01-15T07:53:49;18.47;;;11.90;;
9892;SDS011;4985;49.092;8.542;2024-01-15T07:56:15;15.30;;;9.83;;
9892;SDS011;4985;49.092;8.542;2024-01-15T07:58:41;18.33;;;10.33;;
9892;SDS011;4985;49.092;8.542;2024-01-15T08:01:06;14.47;;;8.43;;
9892;SDS011;4985;49.092;8.542;2024-01-15T08:03:32;16.33;;;9.07;;
9892;SDS011;4985;49.092;8.542;2024-01-15T08:05:58;19.33;;;10.60;;
9892;SDS011;4985;49.092;8.542;2024-01-15T08:08:24;15.80;;;8.80;;
9892;SDS011;4985;49.092;8.542;2024-01-15T08:10:51;16.00;;;9.63;;
9892;SDS011;4985;49.092;8.542;2024-01-15T08:13:17;16.47;;;9.23;;
9892;SDS011;4985;49.092;8.542;2024-01-15T08:15:42;18.27;;;9.53;;
9892;SDS011;4985;49.092;8.542;2024-01-15T08:18:08;20.10;;;10.87;;
9892;SDS011;4985;49.092;8.542;2024-01-15T08:20:34;17.53;;;9.67;;
9892;SDS011;4985;49.092;8.542;2024-01-15T08:22:59;12.43;;;8.13;;
9892;SDS011;4985;49.092;8.542;2024-01-15T08:25:24;16.43;;;9.10;;
9892;SDS011;4985;49.092;8.542;2024-01-15T08:27:51;18.67;;;11.57;;
9892;SDS011;4985;49.092;8.542;2024-01-15T08:30:16;17.10;;;11.10;;
9892;SDS011;4985;49.092;8.542;2024-01-15T08:32:43;18.33;;;9.07;;
9892;SDS011;4985;49.092;8.542;2024-01-15T08:35:09;14.20;;;8.27;;
9892;SDS011;4985;49.092;8.542;2024-01-15T08:37:34;14.17;;;7.87;;
9892;SDS011;4985;49.092;8.542;2024-01-15T08:40:00;19.00;;;9.73;;
9892;SDS011;4985;49.092;8.542;2024-01-15T08:42:25;14.63;;;8.10;;
9892;SDS011;4985;49.092;8.542;2024-01-15T08:44:51;17.90;;;10.00;;
9892;SDS011;4985;49.092;8.542;2024-01-15T08:47:16;18.47;;;10.50;;
9892;SDS011;4985;49.092;8.542;2024-01-15T08:49:42;13.70;;;8.60;;
9892;SDS011;4985;49.092;8.542;2024-01-15T08:52:09;17.70;;;10.17;;
9892;SDS011;4985;49.092;8.542;2024-01-15T08:54:34;16.17;;;8.20;;
9892;SDS011;4985;49.092;8.542;2024-01-15T08:57:00;15.07;;;8.20;;
9892;SDS011;4985;49.092;8.542;2024-01-15T08:59:25;16.87;;;8.60;;
9892;SDS011;4985;49.092;8.542;2024-01-15T09:01:51;14.87;;;9.00;;
9892;SDS011;4985;49.092;8.542;2024-01-15T09:04:17;12.23;;;7.63;;
9892;SDS011;4985;49.092;8.542;2024-01-15T09:06:46;14.43;;;8.40;;
9892;SDS011;4985;49.092;8.542;2024-01-15T09:09:12;14.63;;;6.87;;
9892;SDS011;4985;49.092;8.542;2024-01-15T09:11:38;14.17;;;8.50;;
9892;SDS011;4985;49.092;8.542;2024-01-15T09:14:03;17.13;;;8.23;;
9892;SDS011;4985;49.092;8.542;2024-01-15T09:16:29;17.17;;;9.57;;
9892;SDS011;4985;49.092;8.542;2024-01-15T09:18:54;11.93;;;6.67;;
9892;SDS011;4985;49.092;8.542;2024-01-15T09:21:22;13.80;;;8.20;;
9892;SDS011;4985;49.092;8.542;2024-01-15T09:23:48;11.50;;;6.53;;
9892;SDS011;4985;49.092;8.542;2024-01-15T09:26:13;13.67;;;8.60;;
9892;SDS011;4985;49.092;8.542;2024-01-15T09:28:38;14.80;;;7.67;;
9892;SDS011;4985;49.092;8.542;2024-01-15T09:31:04;11.93;;;6.80;;
9892;SDS011;4985;49.092;8.542;2024-01-15T09:33:29;12.90;;;6.43;;
9892;SDS011;4985;49.092;8.542;2024-01-15T09:35:54;15.30;;;8.03;;
9892;SDS011;4985;49.092;8.542;2024-01-15T09:38:20;15.17;;;8.80;;
9892;SDS011;4985;49.092;8.542;2024-01-15T09:40:45;9.70;;;5.83;;
9892;SDS011;4985;49.092;8.542;2024-01-15T09:43:12;12.30;;;7.93;;
9892;SDS011;4985;49.092;8.542;2024-01-15T09:45:39;12.80;;;7.10;;
9892;SDS011;4985;49.092;8.542;2024-01-15T09:48:05;12.33;;;7.03;;
9892;SDS011;4985;49.092;8.542;2024-01-15T09:50:30;15.47;;;7.37;;
9892;SDS011;4985;49.092;8.542;2024-01-15T09:52:56;12.93;;;6.87;;
9892;SDS011;4985;49.092;8.542;2024-01-15T09:55:22;9.33;;;5.27;;
9892;SDS011;4985;49.092;8.542;2024-01-15T09:57:48;10.50;;;6.37;;
9892;SDS011;4985;49.092;8.542;2024-01-15T10:00:17;12.60;;;6.97;;
9892;SDS011;4985;49.092;8.542;2024-01-15T10:02:43;12.53;;;6.30;;
9892;SDS011;4985;49.092;8.542;2024-01-15T10:05:09;11.93;;;6.60;;
9892;SDS011;4985;49.092;8.542;2024-01-15T10:07:35;16.00;;;7.53;;
9892;SDS011;4985;49.092;8.542;2024-01-15T10:10:02;12.30;;;7.30;;
9892;SDS011;4985;49.092;8.542;2024-01-15T10:12:28;14.10;;;8.23;;
9892;SDS011;4985;49.092;8.542;2024-01-15T10:14:54;13.30;;;6.80;;
9892;SDS011;4985;49.092;8.542;2024-01-15T10:17:19;17.80;;;10.73;;
9892;SDS011;4985;49.092;8.542;2024-01-15T10:19:47;14.93;;;8.80;;
9892;SDS011;4985;49.092;8.542;2024-01-15T10:22:13;11.07;;;6.27;;
9892;SDS011;4985;49.092;8.542;2024-01-15T10:24:40;8.97;;;4.67;;
9892;SDS011;4985;49.092;8.542;2024-01-15T10:27:06;11.37;;;5.90;;
9892;SDS011;4985;49.092;8.542;2024-01-15T10:29:33;13.00;;;6.23;;
9892;SDS011;4985;49.092;8.542;2024-01-15T10:31:58;12.97;;;5.10;;
9892;SDS011;4985;49.092;8.542;2024-01-15T10:34:24;10.43;;;5.37;;
9892;SDS011;4985;49.092;8.542;2024-01-15T10:36:50;10.73;;;5.33;;
9892;SDS011;4985;49.092;8.542;2024-01-15T10:39:20;10.83;;;6.43;;
9892;SDS011;4985;49.092;8.542;2024-01-15T10:41:49;10.13;;;4.87;;
9892;SDS011;4985;49.092;8.542;2024-01-15T10:44:15;13.20;;;6.20;;
9892;SDS011;4985;49.092;8.542;2024-01-15T10:46:45;10.13;;;4.53;;
9892;SDS011;4985;49.092;8.542;2024-01-15T10:49:11;10.23;;;5.73;;
9892;SDS011;4985;49.092;8.542;2024-01-15T10:51:37;10.33;;;4.97;;
9892;SDS011;4985;49.092;8.542;2024-01-15T10:54:03;6.83;;;3.30;;
9892;SDS011;4985;49.092;8.542;2024-01-15T10:56:31;8.60;;;5.00;;
9892;SDS011;4985;49.092;8.542;2024-01-15T10:58:58;9.13;;;4.83;;
9892;SDS011;4985;49.092;8.542;2024-01-15T11:01:24;10.80;;;5.73;;
9892;SDS011;4985;49.092;8.542;2024-01-15T11:03:50;10.73;;;5.40;;
9892;SDS011;4985;49.092;8.542;2024-01-15T11:06:19;6.17;;;3.93;;
9892;SDS011;4985;49.092;8.542;2024-01-15T11:08:45;11.67;;;5.60;;
9892;SDS011;4985;49.092;8.542;2024-01-15T11:11:14;7.73;;;5.13;;
9892;SDS011;4985;49.092;8.542;2024-01-15T11:13:41;8.27;;;5.80;;
9892;SDS011;4985;49.092;8.542;2024-01-15T11:16:12;7.87;;;4.37;;
9892;SDS011;4985;49.092;8.542;2024-01-15T11:18:43;6.37;;;3.43;;
9892;SDS011;4985;49.092;8.542;2024-01-15T11:21:27;7.27;;;4.67;;
9892;SDS011;4985;49.092;8.542;2024-01-15T11:28:56;9.23;;;4.20;;
9892;SDS011;4985;49.092;8.542;2024-01-15T11:31:27;5.37;;;3.23;;
9892;SDS011;4985;49.092;8.542;2024-01-15T11:33:53;6.77;;;4.07;;
9892;SDS011;4985;49.092;8.542;2024-01-15T11:36:20;7.47;;;4.57;;
9892;SDS011;4985;49.092;8.542;2024-01-15T11:38:45;5.60;;;3.60;;
9892;SDS011;4985;49.092;8.542;2024-01-15T11:41:14;6.30;;;3.70;;
9892;SDS011;4985;49.092;8.542;2024-01-15T11:43:42;6.03;;;4.13;;
9892;SDS011;4985;49.092;8.542;2024-01-15T11:46:11;7.97;;;4.80;;
9892;SDS011;4985;49.092;8.542;2024-01-15T11:48:43;6.83;;;4.23;;
9892;SDS011;4985;49.092;8.542;2024-01-15T11:51:10;6.73;;;4.87;;
9892;SDS011;4985;49.092;8.542;2024-01-15T11:53:43;8.30;;;4.40;;
9892;SDS011;4985;49.092;8.542;2024-01-15T11:56:16;12.43;;;5.37;;
9892;SDS011;4985;49.092;8.542;2024-01-15T11:58:42;29.67;;;7.43;;
9892;SDS011;4985;49.092;8.542;2024-01-15T12:01:08;11.07;;;6.53;;
9892;SDS011;4985;49.092;8.542;2024-01-15T12:03:35;10.40;;;5.77;;
9892;SDS011;4985;49.092;8.542;2024-01-15T12:06:00;10.80;;;6.20;;
9892;SDS011;4985;49.092;8.542;2024-01-15T12:08:26;45.07;;;9.40;;
9892;SDS011;4985;49.092;8.542;2024-01-15T12:10:52;8.57;;;5.77;;
9892;SDS011;4985;49.092;8.542;2024-01-15T12:13:18;8.67;;;5.73;;
9892;SDS011;4985;49.092;8.542;2024-01-15T12:15:44;10.07;;;5.87;;
9892;SDS011;4985;49.092;8.542;2024-01-15T12:18:17;9.40;;;6.37;;
9892;SDS011;4985;49.092;8.542;2024-01-15T12:20:44;11.03;;;6.33;;
9892;SDS011;4985;49.092;8.542;2024-01-15T12:23:12;11.53;;;5.60;;
9892;SDS011;4985;49.092;8.542;2024-01-15T12:25:38;8.07;;;5.60;;
9892;SDS011;4985;49.092;8.542;2024-01-15T12:28:04;7.90;;;4.70;;
9892;SDS011;4985;49.092;8.542;2024-01-15T12:30:30;8.40;;;5.70;;
9892;SDS011;4985;49.092;8.542;2024-01-15T12:32:57;9.77;;;6.00;;
9892;SDS011;4985;49.092;8.542;2024-01-15T12:35:23;10.37;;;5.73;;
9892;SDS011;4985;49.092;8.542;2024-01-15T12:37:51;8.97;;;6.23;;
9892;SDS011;4985;49.092;8.542;2024-01-15T12:40:20;9.70;;;5.77;;
9892;SDS011;4985;49.092;8.542;2024-01-15T12:42:46;10.30;;;7.60;;
9892;SDS011;4985;49.092;8.542;2024-01-15T12:45:11;7.27;;;4.23;;
9892;SDS011;4985;49.092;8.542;2024-01-15T12:47:37;7.70;;;5.77;;
9892;SDS011;4985;49.092;8.542;2024-01-15T12:50:09;9.23;;;5.87;;
9892;SDS011;4985;49.092;8.542;2024-01-15T12:52:35;8.67;;;5.73;;
9892;SDS011;4985;49.092;8.542;2024-01-15T12:55:02;8.93;;;6.13;;
9892;SDS011;4985;49.092;8.542;2024-01-15T12:57:31;7.03;;;5.60;;
9892;SDS011;4985;49.092;8.542;2024-01-15T12:59:57;8.63;;;5.10;;
9892;SDS011;4985;49.092;8.542;2024-01-15T13:02:22;7.93;;;5.60;;
9892;SDS011;4985;49.092;8.542;2024-01-15T13:04:48;9.23;;;5.57;;
9892;SDS011;4985;49.092;8.542;2024-01-15T13:07:13;10.37;;;5.00;;
9892;SDS011;4985;49.092;8.542;2024-01-15T13:09:39;8.00;;;4.83;;
9892;SDS011;4985;49.092;8.542;2024-01-15T13:12:04;7.63;;;5.37;;
9892;SDS011;4985;49.092;8.542;2024-01-15T13:14:30;8.00;;;4.77;;
9892;SDS011;4985;49.092;8.542;2024-01-15T13:16:56;6.53;;;4.97;;
9892;SDS011;4985;49.092;8.542;2024-01-15T13:19:22;5.03;;;3.57;;
9892;SDS011;4985;49.092;8.542;2024-01-15T13:21:47;8.13;;;6.03;;
9892;SDS011;4985;49.092;8.542;2024-01-15T13:24:13;6.10;;;3.83;;
9892;SDS011;4985;49.092;8.542;2024-01-15T13:26:39;7.10;;;4.27;;
9892;SDS011;4985;49.092;8.542;2024-01-15T13:29:05;7.67;;;4.53;;
9892;SDS011;4985;49.092;8.542;2024-01-15T13:31:31;7.37;;;4.57;;
9892;SDS011;4985;49.092;8.542;2024-01-15T13:33:57;8.07;;;5.20;;
9892;SDS011;4985;49.092;8.542;2024-01-15T13:36:23;7.83;;;5.13;;
9892;SDS011;4985;49.092;8.542;2024-01-15T13:38:49;8.40;;;5.70;;
9892;SDS011;4985;49.092;8.542;2024-01-15T13:41:15;7.27;;;4.70;;
9892;SDS011;4985;49.092;8.542;2024-01-15T13:43:43;7.73;;;5.77;;
9892;SDS011;4985;49.092;8.542;2024-01-15T13:46:10;6.10;;;5.10;;
9892;SDS011;4985;49.092;8.542;2024-01-15T13:48:36;8.80;;;5.27;;
9892;SDS011;4985;49.092;8.542;2024-01-15T13:51:01;8.73;;;5.63;;
9892;SDS011;4985;49.092;8.542;2024-01-15T13:53:26;6.23;;;4.43;;
9892;SDS011;4985;49.092;8.542;2024-01-15T13:55:52;8.20;;;5.33;;
9892;SDS011;4985;49.092;8.542;2024-01-15T13:58:17;7.13;;;4.97;;
9892;SDS011;4985;49.092;8.542;2024-01-15T14:00:43;7.43;;;4.83;;
9892;SDS011;4985;49.092;8.542;2024-01-15T14:03:09;8.43;;;5.77;;
9892;SDS011;4985;49.092;8.542;2024-01-15T14:05:34;6.60;;;3.90;;
9892;SDS011;4985;49.092;8.542;2024-01-15T14:07:59;7.73;;;5.43;;
9892;SDS011;4985;49.092;8.542;2024-01-15T14:10:25;9.13;;;5.90;;
9892;SDS011;4985;49.092;8.542;2024-01-15T14:12:50;8.80;;;5.43;;
9892;SDS011;4985;49.092;8.542;2024-01-15T14:15:16;6.80;;;4.77;;
9892;SDS011;4985;49.092;8.542;2024-01-15T14:17:41;6.90;;;4.63;;
9892;SDS011;4985;49.092;8.542;2024-01-15T14:20:06;7.87;;;5.00;;
9892;SDS011;4985;49.092;8.542;2024-01-15T14:22:34;6.20;;;4.30;;
9892;SDS011;4985;49.092;8.542;2024-01-15T14:24:59;7.13;;;5.13;;
9892;SDS011;4985;49.092;8.542;2024-01-15T14:27:24;9.47;;;5.30;;
9892;SDS011;4985;49.092;8.542;2024-01-15T14:29:50;7.53;;;5.20;;
9892;SDS011;4985;49.092;8.542;2024-01-15T14:32:15;7.53;;;5.47;;
9892;SDS011;4985;49.092;8.542;2024-01-15T14:34:40;8.57;;;4.93;;
9892;SDS011;4985;49.092;8.542;2024-01-15T14:37:06;7.77;;;5.67;;
9892;SDS011;4985;49.092;8.542;2024-01-15T14:39:31;7.47;;;5.40;;
9892;SDS011;4985;49.092;8.542;2024-01-15T14:41:59;8.03;;;6.07;;
9892;SDS011;4985;49.092;8.542;2024-01-15T14:44:24;7.07;;;4.70;;
9892;SDS011;4985;49.092;8.542;2024-01-15T14:46:50;7.57;;;4.93;;
9892;SDS011;4985;49.092;8.542;2024-01-15T14:49:15;6.63;;;4.73;;
9892;SDS011;4985;49.092;8.542;2024-01-15T14:51:42;7.20;;;4.50;;
9892;SDS011;4985;49.092;8.542;2024-01-15T14:54:08;7.47;;;5.07;;
9892;SDS011;4985;49.092;8.542;2024-01-15T14:56:34;8.40;;;5.47;;
9892;SDS011;4985;49.092;8.542;2024-01-15T14:58:59;6.30;;;4.40;;